sensor_id;sensor_type;location;lat;lon;timestamp;temperature;humidity
48728;DHT22;34527;45.618;5.130;2022-07-29T00:00:42;22.60;99.90
48728;DHT22;34527;45.618;5.130;2022-07-29T00:03:11;22.60;99.90
48728;DHT22;34527;45.618;5.130;2022-07-29T00:05:39;22.60;99.90
48728;DHT22;34527;45.618;5.130;2022-07-29T00:08:05;22.70;99.90
48728;DHT22;34527;45.618;5.130;2022-07-29T00:10:31;22.70;99.90
48728;DHT22;34527;45.618;5.130;2022-07-29T00:12:57;22.60;99.90
48728;DHT22;34527;45.618;5.130;2022-07-29T00:15:23;22.50;99.90
48728;DHT22;34527;45.618;5.130;2022-07-29T00:17:49;22.60;99.90
48728;DHT22;34527;45.618;5.130;2022-07-29T00:20:15;22.60;99.90
48728;DHT22;34527;45.618;5.130;2022-07-29T00:22:41;22.60;99.90
48728;DHT22;34527;45.618;5.130;2022-07-29T00:25:07;22.60;99.90
48728;DHT22;34527;45.618;5.130;2022-07-29T00:27:34;22.40;99.90
48728;DHT22;34527;45.618;5.130;2022-07-29T00:30:01;22.50;99.90
48728;DHT22;34527;45.618;5.130;2022-07-29T00:32:27;22.50;99.90
48728;DHT22;34527;45.618;5.130;2022-07-29T00:34:53;22.40;99.90
48728;DHT22;34527;45.618;5.130;2022-07-29T00:37:37;22.40;99.90
48728;DHT22;34527;45.618;5.130;2022-07-29T00:40:03;22.40;99.90
48728;DHT22;34527;45.618;5.130;2022-07-29T00:42:29;22.30;99.90
48728;DHT22;34527;45.618;5.130;2022-07-29T00:44:55;22.20;99.90
48728;DHT22;34527;45.618;5.130;2022-07-29T00:47:21;22.20;99.90
48728;DHT22;34527;45.618;5.130;2022-07-29T00:49:47;22.20;99.90
48728;DHT22;34527;45.618;5.130;2022-07-29T00:52:13;22.10;99.90
48728;DHT22;34527;45.618;5.130;2022-07-29T00:54:40;22.00;99.90
48728;DHT22;34527;45.618;5.130;2022-07-29T00:57:07;22.00;99.90
48728;DHT22;34527;45.618;5.130;2022-07-29T00:59:33;22.00;99.90
48728;DHT22;34527;45.618;5.130;2022-07-29T01:02:00;21.90;99.90
48728;DHT22;34527;45.618;5.130;2022-07-29T01:04:26;21.80;99.90
48728;DHT22;34527;45.618;5.130;2022-07-29T01:06:54;21.80;99.90
48728;DHT22;34527;45.618;5.130;2022-07-29T01:09:20;21.60;99.90
48728;DHT22;34527;45.618;5.130;2022-07-29T01:11:47;21.60;99.90
48728;DHT22;34527;45.618;5.130;2022-07-29T01:14:14;21.50;99.90
48728;DHT22;34527;45.618;5.130;2022-07-29T01:16:54;21.40;99.90
48728;DHT22;34527;45.618;5.130;2022-07-29T01:25:12;21.30;99.90
48728;DHT22;34527;45.618;5.130;2022-07-29T01:30:32;21.30;99.90
48728;DHT22;34527;45.618;5.130;2022-07-29T01:33:05;21.30;99.90
48728;DHT22;34527;45.618;5.130;2022-07-29T01:35:37;21.30;99.90
48728;DHT22;34527;45.618;5.130;2022-07-29T01:38:13;21.30;99.90
48728;DHT22;34527;45.618;5.130;2022-07-29T01:40:48;21.20;99.90
48728;DHT22;34527;45.618;5.130;2022-07-29T01:43:27;21.30;99.90
48728;DHT22;34527;45.618;5.130;2022-07-29T01:46:01;21.30;99.90
48728;DHT22;34527;45.618;5.130;2022-07-29T01:48:37;21.30;99.90
48728;DHT22;34527;45.618;5.130;2022-07-29T01:56:14;21.30;99.90
48728;DHT22;34527;45.618;5.130;2022-07-29T01:58:43;21.30;99.90
48728;DHT22;34527;45.618;5.130;2022-07-29T02:01:12;21.30;99.90
48728;DHT22;34527;45.618;5.130;2022-07-29T02:03:39;21.30;99.90
48728;DHT22;34527;45.618;5.130;2022-07-29T02:06:08;21.30;99.90
48728;DHT22;34527;45.618;5.130;2022-07-29T02:08:35;21.20;99.90
48728;DHT22;34527;45.618;5.130;2022-07-29T02:11:03;21.20;99.90
48728;DHT22;34527;45.618;5.130;2022-07-29T02:13:31;21.10;99.90
48728;DHT22;34527;45.618;5.130;2022-07-29T02:15:58;21.10;99.90
48728;DHT22;34527;45.618;5.130;2022-07-29T02:18:27;21.10;99.90
48728;DHT22;34527;45.618;5.130;2022-07-29T02:20:56;21.00;99.90
48728;DHT22;34527;45.618;5.130;2022-07-29T02:23:24;20.90;99.90
48728;DHT22;34527;45.618;5.130;2022-07-29T02:25:55;20.90;99.90
48728;DHT22;34527;45.618;5.130;2022-07-29T02:28:24;20.90;99.90
48728;DHT22;34527;45.618;5.130;2022-07-29T02:30:52;20.90;99.90
48728;DHT22;34527;45.618;5.130;2022-07-29T02:33:20;20.90;99.90
48728;DHT22;34527;45.618;5.130;2022-07-29T02:35:47;20.90;99.90
48728;DHT22;34527;45.618;5.130;2022-07-29T02:38:18;20.80;99.90
48728;DHT22;34527;45.618;5.130;2022-07-29T02:41:05;20.80;99.90
48728;DHT22;34527;45.618;5.130;2022-07-29T02:43:34;20.60;99.90
48728;DHT22;34527;45.618;5.130;2022-07-29T02:46:04;20.60;99.90
48728;DHT22;34527;45.618;5.130;2022-07-29T02:48:38;20.50;99.90
48728;DHT22;34527;45.618;5.130;2022-07-29T02:51:11;20.50;99.90
48728;DHT22;34527;45.618;5.130;2022-07-29T02:53:38;20.70;99.90
48728;DHT22;34527;45.618;5.130;2022-07-29T02:56:12;20.70;99.90
48728;DHT22;34527;45.618;5.130;2022-07-29T02:58:52;20.60;99.90
48728;DHT22;34527;45.618;5.130;2022-07-29T03:01:27;20.70;99.90
48728;DHT22;34527;45.618;5.130;2022-07-29T03:03:57;20.60;99.90
48728;DHT22;34527;45.618;5.130;2022-07-29T03:06:26;20.60;99.90
48728;DHT22;34527;45.618;5.130;2022-07-29T03:08:55;20.70;99.90
48728;DHT22;34527;45.618;5.130;2022-07-29T03:11:22;20.80;99.90
48728;DHT22;34527;45.618;5.130;2022-07-29T03:13:48;20.80;99.90
48728;DHT22;34527;45.618;5.130;2022-07-29T03:16:15;20.80;99.90
48728;DHT22;34527;45.618;5.130;2022-07-29T03:18:41;20.90;99.90
48728;DHT22;34527;45.618;5.130;2022-07-29T03:21:08;20.90;99.90
48728;DHT22;34527;45.618;5.130;2022-07-29T03:23:34;20.90;99.90
48728;DHT22;34527;45.618;5.130;2022-07-29T03:26:00;20.90;99.90
48728;DHT22;34527;45.618;5.130;2022-07-29T03:28:26;20.80;99.90
48728;DHT22;34527;45.618;5.130;2022-07-29T03:30:53;20.90;99.90
48728;DHT22;34527;45.618;5.130;2022-07-29T03:33:19;20.80;99.90
48728;DHT22;34527;45.618;5.130;2022-07-29T03:35:45;20.70;99.90
48728;DHT22;34527;45.618;5.130;2022-07-29T03:38:11;20.70;99.90
48728;DHT22;34527;45.618;5.130;2022-07-29T03:40:48;20.80;99.90
48728;DHT22;34527;45.618;5.130;2022-07-29T03:43:16;20.80;99.90
48728;DHT22;34527;45.618;5.130;2022-07-29T03:45:45;20.80;99.90
48728;DHT22;34527;45.618;5.130;2022-07-29T03:48:15;20.80;99.90
48728;DHT22;34527;45.618;5.130;2022-07-29T03:50:42;20.70;99.90
48728;DHT22;34527;45.618;5.130;2022-07-29T03:53:08;20.70;99.90
48728;DHT22;34527;45.618;5.130;2022-07-29T03:55:40;20.70;99.90
48728;DHT22;34527;45.618;5.130;2022-07-29T03:58:07;20.80;99.90
48728;DHT22;34527;45.618;5.130;2022-07-29T04:00:34;20.60;99.90
48728;DHT22;34527;45.618;5.130;2022-07-29T04:03:02;20.60;99.90
48728;DHT22;34527;45.618;5.130;2022-07-29T04:05:29;20.70;99.90
48728;DHT22;34527;45.618;5.130;2022-07-29T04:07:55;20.50;99.90
48728;DHT22;34527;45.618;5.130;2022-07-29T04:10:21;20.40;99.90
48728;DHT22;34527;45.618;5.130;2022-07-29T04:12:49;20.40;99.90
48728;DHT22;34527;45.618;5.130;2022-07-29T04:15:14;20.40;99.90
48728;DHT22;34527;45.618;5.130;2022-07-29T04:17:40;20.30;99.90
48728;DHT22;34527;45.618;5.130;2022-07-29T04:20:07;20.30;99.90
48728;DHT22;34527;45.618;5.130;2022-07-29T04:22:33;20.30;99.90
48728;DHT22;34527;45.618;5.130;2022-07-29T04:24:59;20.30;99.90
48728;DHT22;34527;45.618;5.130;2022-07-29T04:27:25;20.00;99.90
48728;DHT22;34527;45.618;5.130;2022-07-29T04:29:51;20.00;99.90
48728;DHT22;34527;45.618;5.130;2022-07-29T04:32:17;20.10;99.90
48728;DHT22;34527;45.618;5.130;2022-07-29T04:34:42;20.10;99.90
48728;DHT22;34527;45.618;5.130;2022-07-29T04:37:08;20.10;99.90
48728;DHT22;34527;45.618;5.130;2022-07-29T04:39:34;20.10;99.90
48728;DHT22;34527;45.618;5.130;2022-07-29T04:42:00;20.20;99.90
48728;DHT22;34527;45.618;5.130;2022-07-29T04:44:26;20.20;99.90
48728;DHT22;34527;45.618;5.130;2022-07-29T04:46:52;20.20;99.90
48728;DHT22;34527;45.618;5.130;2022-07-29T04:49:18;20.20;99.90
48728;DHT22;34527;45.618;5.130;2022-07-29T04:51:43;20.30;99.90
48728;DHT22;34527;45.618;5.130;2022-07-29T04:54:09;20.30;99.90
48728;DHT22;34527;45.618;5.130;2022-07-29T04:56:35;20.20;99.90
48728;DHT22;34527;45.618;5.130;2022-07-29T04:59:01;20.20;99.90
48728;DHT22;34527;45.618;5.130;2022-07-29T05:01:27;20.30;99.90
48728;DHT22;34527;45.618;5.130;2022-07-29T05:03:53;20.30;99.90
48728;DHT22;34527;45.618;5.130;2022-07-29T05:06:19;20.40;99.90
48728;DHT22;34527;45.618;5.130;2022-07-29T05:08:44;20.50;99.90
48728;DHT22;34527;45.618;5.130;2022-07-29T05:11:10;20.60;99.90
48728;DHT22;34527;45.618;5.130;2022-07-29T05:13:36;20.70;99.90
48728;DHT22;34527;45.618;5.130;2022-07-29T05:16:02;20.70;99.90
48728;DHT22;34527;45.618;5.130;2022-07-29T05:18:28;20.80;99.90
48728;DHT22;34527;45.618;5.130;2022-07-29T05:20:54;20.90;99.90
48728;DHT22;34527;45.618;5.130;2022-07-29T05:23:20;20.90;99.90
48728;DHT22;34527;45.618;5.130;2022-07-29T05:25:45;20.90;99.90
48728;DHT22;34527;45.618;5.130;2022-07-29T05:28:11;21.00;99.90
48728;DHT22;34527;45.618;5.130;2022-07-29T05:30:38;21.00;99.90
48728;DHT22;34527;45.618;5.130;2022-07-29T05:33:04;21.00;99.90
48728;DHT22;34527;45.618;5.130;2022-07-29T05:35:30;21.10;99.90
48728;DHT22;34527;45.618;5.130;2022-07-29T05:37:55;21.10;99.90
48728;DHT22;34527;45.618;5.130;2022-07-29T05:40:21;21.10;99.90
48728;DHT22;34527;45.618;5.130;2022-07-29T05:42:47;21.10;99.90
48728;DHT22;34527;45.618;5.130;2022-07-29T05:45:13;21.20;99.90
48728;DHT22;34527;45.618;5.130;2022-07-29T05:47:39;21.70;99.90
48728;DHT22;34527;45.618;5.130;2022-07-29T05:50:05;21.70;99.90
48728;DHT22;34527;45.618;5.130;2022-07-29T05:52:32;22.00;99.90
48728;DHT22;34527;45.618;5.130;2022-07-29T05:54:58;22.00;99.90
48728;DHT22;34527;45.618;5.130;2022-07-29T05:57:24;22.10;99.90
48728;DHT22;34527;45.618;5.130;2022-07-29T05:59:50;22.20;99.90
48728;DHT22;34527;45.618;5.130;2022-07-29T06:02:17;22.00;99.90
48728;DHT22;34527;45.618;5.130;2022-07-29T06:04:43;22.00;99.90
48728;DHT22;34527;45.618;5.130;2022-07-29T06:07:09;21.80;99.90
48728;DHT22;34527;45.618;5.130;2022-07-29T06:09:35;21.80;99.90
48728;DHT22;34527;45.618;5.130;2022-07-29T06:12:01;22.20;99.90
48728;DHT22;34527;45.618;5.130;2022-07-29T06:14:27;22.20;99.90
48728;DHT22;34527;45.618;5.130;2022-07-29T06:16:54;22.10;99.90
48728;DHT22;34527;45.618;5.130;2022-07-29T06:19:20;22.30;99.90
48728;DHT22;34527;45.618;5.130;2022-07-29T06:21:46;22.20;99.90
48728;DHT22;34527;45.618;5.130;2022-07-29T06:24:14;21.90;99.90
48728;DHT22;34527;45.618;5.130;2022-07-29T06:26:41;22.00;99.90
48728;DHT22;34527;45.618;5.130;2022-07-29T06:29:09;22.00;99.90
48728;DHT22;34527;45.618;5.130;2022-07-29T06:31:37;22.20;99.90
48728;DHT22;34527;45.618;5.130;2022-07-29T06:34:03;22.20;99.90
48728;DHT22;34527;45.618;5.130;2022-07-29T06:36:29;22.10;99.90
48728;DHT22;34527;45.618;5.130;2022-07-29T06:38:55;22.00;99.90
48728;DHT22;34527;45.618;5.130;2022-07-29T06:41:21;22.10;99.90
48728;DHT22;34527;45.618;5.130;2022-07-29T06:43:48;22.00;99.90
48728;DHT22;34527;45.618;5.130;2022-07-29T06:46:18;22.20;99.90
48728;DHT22;34527;45.618;5.130;2022-07-29T06:48:46;22.20;99.90
48728;DHT22;34527;45.618;5.130;2022-07-29T06:51:16;22.10;99.90
48728;DHT22;34527;45.618;5.130;2022-07-29T06:53:42;22.20;99.90
48728;DHT22;34527;45.618;5.130;2022-07-29T06:56:08;22.30;99.90
48728;DHT22;34527;45.618;5.130;2022-07-29T06:58:34;22.60;99.90
48728;DHT22;34527;45.618;5.130;2022-07-29T07:01:05;22.70;99.90
48728;DHT22;34527;45.618;5.130;2022-07-29T07:03:32;22.80;99.90
48728;DHT22;34527;45.618;5.130;2022-07-29T07:05:58;22.80;99.90
48728;DHT22;34527;45.618;5.130;2022-07-29T07:08:24;22.70;99.90
48728;DHT22;34527;45.618;5.130;2022-07-29T07:10:51;22.60;99.90
48728;DHT22;34527;45.618;5.130;2022-07-29T07:13:19;22.70;99.90
48728;DHT22;34527;45.618;5.130;2022-07-29T07:15:47;22.60;99.90
48728;DHT22;34527;45.618;5.130;2022-07-29T07:18:14;22.50;99.90
48728;DHT22;34527;45.618;5.130;2022-07-29T07:20:41;22.40;99.90
48728;DHT22;34527;45.618;5.130;2022-07-29T07:23:08;22.40;99.90
48728;DHT22;34527;45.618;5.130;2022-07-29T07:25:35;22.40;99.90
48728;DHT22;34527;45.618;5.130;2022-07-29T07:28:01;22.40;99.90
48728;DHT22;34527;45.618;5.130;2022-07-29T07:30:27;22.30;99.90
48728;DHT22;34527;45.618;5.130;2022-07-29T07:32:55;22.30;99.90
48728;DHT22;34527;45.618;5.130;2022-07-29T07:35:21;22.40;99.90
48728;DHT22;34527;45.618;5.130;2022-07-29T07:37:47;22.30;99.90
48728;DHT22;34527;45.618;5.130;2022-07-29T07:40:13;22.20;99.90
48728;DHT22;34527;45.618;5.130;2022-07-29T07:42:41;22.10;99.90
48728;DHT22;34527;45.618;5.130;2022-07-29T07:45:08;22.10;99.90
48728;DHT22;34527;45.618;5.130;2022-07-29T07:47:37;22.10;99.90
48728;DHT22;34527;45.618;5.130;2022-07-29T07:50:05;22.30;99.90
48728;DHT22;34527;45.618;5.130;2022-07-29T07:52:31;22.30;99.90
48728;DHT22;34527;45.618;5.130;2022-07-29T07:54:57;22.30;99.90
48728;DHT22;34527;45.618;5.130;2022-07-29T07:57:28;22.30;99.90
48728;DHT22;34527;45.618;5.130;2022-07-29T07:59:54;22.30;99.90
48728;DHT22;34527;45.618;5.130;2022-07-29T08:02:20;22.20;99.90
48728;DHT22;34527;45.618;5.130;2022-07-29T08:04:46;22.10;99.90
48728;DHT22;34527;45.618;5.130;2022-07-29T08:07:12;22.10;99.90
48728;DHT22;34527;45.618;5.130;2022-07-29T08:09:39;22.20;99.90
48728;DHT22;34527;45.618;5.130;2022-07-29T08:12:05;22.40;99.90
48728;DHT22;34527;45.618;5.130;2022-07-29T08:14:32;22.50;99.90
48728;DHT22;34527;45.618;5.130;2022-07-29T08:16:58;22.30;99.90
48728;DHT22;34527;45.618;5.130;2022-07-29T08:19:24;22.30;99.90
48728;DHT22;34527;45.618;5.130;2022-07-29T08:21:50;22.20;99.90
48728;DHT22;34527;45.618;5.130;2022-07-29T08:24:19;22.40;99.90
48728;DHT22;34527;45.618;5.130;2022-07-29T08:27:04;22.50;99.90
48728;DHT22;34527;45.618;5.130;2022-07-29T08:29:30;22.60;99.90
48728;DHT22;34527;45.618;5.130;2022-07-29T08:31:56;22.70;99.90
48728;DHT22;34527;45.618;5.130;2022-07-29T08:34:24;22.60;99.90
48728;DHT22;34527;45.618;5.130;2022-07-29T08:36:50;22.60;99.90
48728;DHT22;34527;45.618;5.130;2022-07-29T08:39:17;22.60;99.90
48728;DHT22;34527;45.618;5.130;2022-07-29T08:41:44;22.70;99.90
48728;DHT22;34527;45.618;5.130;2022-07-29T08:44:11;22.70;99.90
48728;DHT22;34527;45.618;5.130;2022-07-29T08:46:38;22.80;99.90
48728;DHT22;34527;45.618;5.130;2022-07-29T08:49:07;22.60;99.90
48728;DHT22;34527;45.618;5.130;2022-07-29T08:51:34;22.40;99.90
48728;DHT22;34527;45.618;5.130;2022-07-29T08:54:03;22.20;99.90
48728;DHT22;34527;45.618;5.130;2022-07-29T08:56:29;22.20;99.90
48728;DHT22;34527;45.618;5.130;2022-07-29T08:58:58;21.90;99.90
48728;DHT22;34527;45.618;5.130;2022-07-29T09:01:26;21.90;99.90
48728;DHT22;34527;45.618;5.130;2022-07-29T09:03:55;21.80;99.90
48728;DHT22;34527;45.618;5.130;2022-07-29T09:06:22;21.60;99.90
48728;DHT22;34527;45.618;5.130;2022-07-29T09:08:52;21.40;99.90
48728;DHT22;34527;45.618;5.130;2022-07-29T09:11:18;21.20;99.90
48728;DHT22;34527;45.618;5.130;2022-07-29T09:13:43;21.10;99.90
48728;DHT22;34527;45.618;5.130;2022-07-29T09:16:09;20.90;99.90
48728;DHT22;34527;45.618;5.130;2022-07-29T09:18:44;20.80;99.90
48728;DHT22;34527;45.618;5.130;2022-07-29T09:21:14;20.80;99.90
48728;DHT22;34527;45.618;5.130;2022-07-29T09:24:08;20.70;99.90
48728;DHT22;34527;45.618;5.130;2022-07-29T09:26:39;20.60;99.90
48728;DHT22;34527;45.618;5.130;2022-07-29T09:29:17;20.60;99.90
48728;DHT22;34527;45.618;5.130;2022-07-29T09:31:49;20.40;99.90
48728;DHT22;34527;45.618;5.130;2022-07-29T09:34:23;20.50;99.90
48728;DHT22;34527;45.618;5.130;2022-07-29T09:36:50;20.50;99.90
48728;DHT22;34527;45.618;5.130;2022-07-29T09:39:31;20.40;99.90
48728;DHT22;34527;45.618;5.130;2022-07-29T09:42:00;20.50;99.90
48728;DHT22;34527;45.618;5.130;2022-07-29T09:44:28;20.40;99.90
48728;DHT22;34527;45.618;5.130;2022-07-29T09:47:06;20.50;99.90
48728;DHT22;34527;45.618;5.130;2022-07-29T09:49:33;20.50;99.90
48728;DHT22;34527;45.618;5.130;2022-07-29T09:52:08;20.50;99.90
48728;DHT22;34527;45.618;5.130;2022-07-29T09:54:35;20.50;99.90
48728;DHT22;34527;45.618;5.130;2022-07-29T09:57:07;20.50;99.90
48728;DHT22;34527;45.618;5.130;2022-07-29T09:59:35;20.50;99.90
48728;DHT22;34527;45.618;5.130;2022-07-29T10:02:01;20.40;99.90
48728;DHT22;34527;45.618;5.130;2022-07-29T10:04:39;20.30;99.90
48728;DHT22;34527;45.618;5.130;2022-07-29T10:07:06;20.20;99.90
48728;DHT22;34527;45.618;5.130;2022-07-29T10:09:33;20.10;99.90
48728;DHT22;34527;45.618;5.130;2022-07-29T10:14:31;20.30;99.90
48728;DHT22;34527;45.618;5.130;2022-07-29T10:16:59;20.40;99.90
48728;DHT22;34527;45.618;5.130;2022-07-29T10:19:28;20.40;99.90
48728;DHT22;34527;45.618;5.130;2022-07-29T10:21:57;20.50;99.90
48728;DHT22;34527;45.618;5.130;2022-07-29T10:24:25;20.50;99.90
48728;DHT22;34527;45.618;5.130;2022-07-29T10:26:56;20.50;99.90
48728;DHT22;34527;45.618;5.130;2022-07-29T10:29:23;20.60;99.90
48728;DHT22;34527;45.618;5.130;2022-07-29T10:32:23;20.70;99.90
48728;DHT22;34527;45.618;5.130;2022-07-29T10:43:21;21.10;99.90
48728;DHT22;34527;45.618;5.130;2022-07-29T10:45:49;21.10;99.90
48728;DHT22;34527;45.618;5.130;2022-07-29T10:48:20;21.10;99.90
48728;DHT22;34527;45.618;5.130;2022-07-29T10:51:01;21.20;99.90
48728;DHT22;34527;45.618;5.130;2022-07-29T10:53:50;21.30;99.90
48728;DHT22;34527;45.618;5.130;2022-07-29T10:56:30;21.40;99.90
48728;DHT22;34527;45.618;5.130;2022-07-29T11:01:44;21.50;99.90
48728;DHT22;34527;45.618;5.130;2022-07-29T11:04:10;21.50;99.90
48728;DHT22;34527;45.618;5.130;2022-07-29T11:07:06;21.70;99.90
48728;DHT22;34527;45.618;5.130;2022-07-29T11:09:33;21.90;99.90
48728;DHT22;34527;45.618;5.130;2022-07-29T11:11:59;22.10;99.90
48728;DHT22;34527;45.618;5.130;2022-07-29T11:14:59;22.40;99.90
48728;DHT22;34527;45.618;5.130;2022-07-29T11:17:27;22.60;99.90
48728;DHT22;34527;45.618;5.130;2022-07-29T11:20:32;22.90;99.90
48728;DHT22;34527;45.618;5.130;2022-07-29T11:22:58;23.10;99.90
48728;DHT22;34527;45.618;5.130;2022-07-29T11:25:25;23.50;99.90
48728;DHT22;34527;45.618;5.130;2022-07-29T11:27:52;23.60;99.90
48728;DHT22;34527;45.618;5.130;2022-07-29T11:30:20;23.80;99.90
48728;DHT22;34527;45.618;5.130;2022-07-29T11:32:48;23.80;99.90
48728;DHT22;34527;45.618;5.130;2022-07-29T11:35:22;23.70;99.90
48728;DHT22;34527;45.618;5.130;2022-07-29T11:41:26;24.00;99.90
48728;DHT22;34527;45.618;5.130;2022-07-29T11:44:00;24.00;99.90
48728;DHT22;34527;45.618;5.130;2022-07-29T11:46:47;24.00;99.90
48728;DHT22;34527;45.618;5.130;2022-07-29T11:49:25;24.20;99.90
48728;DHT22;34527;45.618;5.130;2022-07-29T11:51:57;24.00;99.90
48728;DHT22;34527;45.618;5.130;2022-07-29T11:54:33;24.10;99.90
48728;DHT22;34527;45.618;5.130;2022-07-29T11:56:59;24.10;99.90
48728;DHT22;34527;45.618;5.130;2022-07-29T11:59:25;24.20;99.90
48728;DHT22;34527;45.618;5.130;2022-07-29T12:01:56;24.00;99.90
48728;DHT22;34527;45.618;5.130;2022-07-29T12:04:27;24.20;99.90
48728;DHT22;34527;45.618;5.130;2022-07-29T12:06:59;24.60;99.90
48728;DHT22;34527;45.618;5.130;2022-07-29T12:09:28;24.80;99.90
48728;DHT22;34527;45.618;5.130;2022-07-29T12:11:59;24.70;99.90
48728;DHT22;34527;45.618;5.130;2022-07-29T12:14:29;24.90;99.90
48728;DHT22;34527;45.618;5.130;2022-07-29T12:16:56;24.80;99.90
48728;DHT22;34527;45.618;5.130;2022-07-29T12:19:23;24.80;99.90
48728;DHT22;34527;45.618;5.130;2022-07-29T12:21:50;24.70;99.90
48728;DHT22;34527;45.618;5.130;2022-07-29T12:24:17;24.80;99.90
48728;DHT22;34527;45.618;5.130;2022-07-29T12:26:57;24.90;99.90
48728;DHT22;34527;45.618;5.130;2022-07-29T12:29:24;25.00;99.90
48728;DHT22;34527;45.618;5.130;2022-07-29T12:31:53;24.90;99.90
48728;DHT22;34527;45.618;5.130;2022-07-29T12:34:22;25.10;99.90
48728;DHT22;34527;45.618;5.130;2022-07-29T12:36:49;25.30;99.90
48728;DHT22;34527;45.618;5.130;2022-07-29T12:39:18;25.50;99.90
48728;DHT22;34527;45.618;5.130;2022-07-29T12:41:45;25.40;99.90
48728;DHT22;34527;45.618;5.130;2022-07-29T12:44:11;25.40;99.90
48728;DHT22;34527;45.618;5.130;2022-07-29T12:46:37;25.30;99.90
48728;DHT22;34527;45.618;5.130;2022-07-29T12:49:03;25.30;99.90
48728;DHT22;34527;45.618;5.130;2022-07-29T12:51:32;25.20;99.90
48728;DHT22;34527;45.618;5.130;2022-07-29T12:54:13;25.50;99.90
48728;DHT22;34527;45.618;5.130;2022-07-29T12:56:44;25.60;99.90
48728;DHT22;34527;45.618;5.130;2022-07-29T12:59:15;25.50;99.90
48728;DHT22;34527;45.618;5.130;2022-07-29T13:01:43;25.40;99.90
48728;DHT22;34527;45.618;5.130;2022-07-29T13:04:10;25.60;99.90
48728;DHT22;34527;45.618;5.130;2022-07-29T13:06:41;25.40;99.90
48728;DHT22;34527;45.618;5.130;2022-07-29T13:09:13;25.50;99.90
48728;DHT22;34527;45.618;5.130;2022-07-29T13:11:42;25.70;99.90
48728;DHT22;34527;45.618;5.130;2022-07-29T13:14:11;26.00;99.90
48728;DHT22;34527;45.618;5.130;2022-07-29T13:17:02;26.00;99.90
48728;DHT22;34527;45.618;5.130;2022-07-29T13:19:40;25.80;99.90
48728;DHT22;34527;45.618;5.130;2022-07-29T13:22:10;25.60;99.90
48728;DHT22;34527;45.618;5.130;2022-07-29T13:24:53;25.70;99.90
48728;DHT22;34527;45.618;5.130;2022-07-29T13:27:21;25.90;99.90
48728;DHT22;34527;45.618;5.130;2022-07-29T13:29:47;26.00;99.90
48728;DHT22;34527;45.618;5.130;2022-07-29T13:32:14;26.20;99.90
48728;DHT22;34527;45.618;5.130;2022-07-29T13:34:40;26.30;99.90
48728;DHT22;34527;45.618;5.130;2022-07-29T13:37:06;26.30;99.90
48728;DHT22;34527;45.618;5.130;2022-07-29T13:39:32;26.50;99.90
48728;DHT22;34527;45.618;5.130;2022-07-29T13:41:58;26.60;99.90
48728;DHT22;34527;45.618;5.130;2022-07-29T13:44:24;26.20;99.90
48728;DHT22;34527;45.618;5.130;2022-07-29T13:46:50;26.30;99.90
48728;DHT22;34527;45.618;5.130;2022-07-29T13:49:16;26.30;99.90
48728;DHT22;34527;45.618;5.130;2022-07-29T13:51:42;26.30;99.90
48728;DHT22;34527;45.618;5.130;2022-07-29T13:54:08;26.10;99.90
48728;DHT22;34527;45.618;5.130;2022-07-29T13:56:34;26.10;99.90
48728;DHT22;34527;45.618;5.130;2022-07-29T13:59:00;26.00;99.90
48728;DHT22;34527;45.618;5.130;2022-07-29T14:01:26;26.00;99.90
48728;DHT22;34527;45.618;5.130;2022-07-29T14:03:53;26.10;99.90
48728;DHT22;34527;45.618;5.130;2022-07-29T14:06:18;25.90;99.90
48728;DHT22;34527;45.618;5.130;2022-07-29T14:08:47;25.90;99.90
48728;DHT22;34527;45.618;5.130;2022-07-29T14:11:16;26.10;99.90
48728;DHT22;34527;45.618;5.130;2022-07-29T14:13:42;26.10;99.90
48728;DHT22;34527;45.618;5.130;2022-07-29T14:16:08;26.10;99.90
48728;DHT22;34527;45.618;5.130;2022-07-29T14:18:35;26.20;99.90
48728;DHT22;34527;45.618;5.130;2022-07-29T14:21:01;26.30;99.90
48728;DHT22;34527;45.618;5.130;2022-07-29T14:23:27;26.70;99.90
48728;DHT22;34527;45.618;5.130;2022-07-29T14:25:53;26.90;99.90
48728;DHT22;34527;45.618;5.130;2022-07-29T14:28:19;27.30;99.90
48728;DHT22;34527;45.618;5.130;2022-07-29T14:30:45;27.00;99.90
48728;DHT22;34527;45.618;5.130;2022-07-29T14:33:11;26.80;99.90
48728;DHT22;34527;45.618;5.130;2022-07-29T14:35:37;26.80;99.90
48728;DHT22;34527;45.618;5.130;2022-07-29T14:38:03;26.70;99.90
48728;DHT22;34527;45.618;5.130;2022-07-29T14:40:29;26.90;99.90
48728;DHT22;34527;45.618;5.130;2022-07-29T14:42:55;27.10;99.90
48728;DHT22;34527;45.618;5.130;2022-07-29T14:45:21;27.30;99.90
48728;DHT22;34527;45.618;5.130;2022-07-29T14:47:48;27.10;99.90
48728;DHT22;34527;45.618;5.130;2022-07-29T14:50:15;27.10;99.90
48728;DHT22;34527;45.618;5.130;2022-07-29T14:52:41;26.90;99.90
48728;DHT22;34527;45.618;5.130;2022-07-29T14:55:07;27.10;99.90
48728;DHT22;34527;45.618;5.130;2022-07-29T14:57:33;26.90;99.90
48728;DHT22;34527;45.618;5.130;2022-07-29T14:59:59;26.60;99.90
48728;DHT22;34527;45.618;5.130;2022-07-29T15:02:25;26.50;99.90
48728;DHT22;34527;45.618;5.130;2022-07-29T15:04:51;26.30;99.90
48728;DHT22;34527;45.618;5.130;2022-07-29T15:07:17;26.50;99.90
48728;DHT22;34527;45.618;5.130;2022-07-29T15:09:43;26.60;99.90
48728;DHT22;34527;45.618;5.130;2022-07-29T15:12:11;26.30;99.90
48728;DHT22;34527;45.618;5.130;2022-07-29T15:14:37;26.40;99.90
48728;DHT22;34527;45.618;5.130;2022-07-29T15:17:03;26.40;99.90
48728;DHT22;34527;45.618;5.130;2022-07-29T15:19:29;26.50;99.90
48728;DHT22;34527;45.618;5.130;2022-07-29T15:21:55;26.40;99.90
48728;DHT22;34527;45.618;5.130;2022-07-29T15:24:20;26.30;99.90
48728;DHT22;34527;45.618;5.130;2022-07-29T15:26:47;26.30;99.90
48728;DHT22;34527;45.618;5.130;2022-07-29T15:29:13;26.50;99.90
48728;DHT22;34527;45.618;5.130;2022-07-29T15:31:39;26.50;99.90
48728;DHT22;34527;45.618;5.130;2022-07-29T15:34:05;26.40;99.90
48728;DHT22;34527;45.618;5.130;2022-07-29T15:36:31;26.60;99.90
48728;DHT22;34527;45.618;5.130;2022-07-29T15:38:57;26.70;99.90
48728;DHT22;34527;45.618;5.130;2022-07-29T15:41:23;26.50;99.90
48728;DHT22;34527;45.618;5.130;2022-07-29T15:43:49;26.50;99.90
48728;DHT22;34527;45.618;5.130;2022-07-29T15:46:18;26.60;99.90
48728;DHT22;34527;45.618;5.130;2022-07-29T15:49:04;26.80;99.90
48728;DHT22;34527;45.618;5.130;2022-07-29T15:51:30;26.90;99.90
48728;DHT22;34527;45.618;5.130;2022-07-29T15:53:56;26.80;99.90
48728;DHT22;34527;45.618;5.130;2022-07-29T15:56:23;26.80;99.90
48728;DHT22;34527;45.618;5.130;2022-07-29T15:58:49;26.80;99.90
48728;DHT22;34527;45.618;5.130;2022-07-29T16:01:15;26.70;99.90
48728;DHT22;34527;45.618;5.130;2022-07-29T16:03:41;26.60;99.90
48728;DHT22;34527;45.618;5.130;2022-07-29T16:06:08;26.70;99.90
48728;DHT22;34527;45.618;5.130;2022-07-29T16:08:34;26.80;99.90